Time;durP1;ratioP1;P1;durP2;ratioP2;P2;SDS_P1;SDS_P2;PMS_P1;PMS_P2;Temp;Humidity;BMP_temperature;BMP_pressure;BME280_temperature;BME280_humidity;BME280_pressure;Samples;Min_cycle;Max_cycle;Signal;HPM_P1;HPM_P2
2021/09/22 00:00:23;;;;;;;9.73;8.73;;;15.50;99.90;;;;;;5027373;28;20238;-67
2021/09/22 00:02:49;;;;;;;8.77;7.90;;;15.50;99.90;;;;;;5026115;28;20186;-67
2021/09/22 00:05:15;;;;;;;11.77;8.10;;;15.50;99.90;;;;;;5027750;28;20431;-67
2021/09/22 00:07:42;;;;;;;9.57;8.43;;;15.40;99.90;;;;;;5023190;28;20471;-64
2021/09/22 00:10:12;;;;;;;8.93;8.03;;;15.40;99.90;;;;;;5027467;28;20529;-64
2021/09/22 00:12:37;;;;;;;8.80;7.87;;;15.40;99.90;;;;;;5029415;28;20486;-64
2021/09/22 00:15:05;;;;;;;10.20;8.13;;;15.40;99.90;;;;;;5026551;28;20831;-64
2021/09/22 00:17:32;;;;;;;9.70;8.33;;;15.40;99.90;;;;;;5027460;28;20545;-64
2021/09/22 00:19:58;;;;;;;9.10;8.20;;;15.30;99.90;;;;;;5025320;28;20502;-65
2021/09/22 00:22:23;;;;;;;8.23;7.37;;;15.40;99.90;;;;;;5007727;28;20983;-63
2021/09/22 00:24:49;;;;;;;9.60;8.43;;;15.40;99.90;;;;;;5010665;28;20235;-62
2021/09/22 00:27:15;;;;;;;9.77;8.17;;;15.30;99.90;;;;;;5028865;28;20633;-68
2021/09/22 00:29:41;;;;;;;9.77;8.63;;;15.30;99.90;;;;;;5024813;28;20439;-68
2021/09/22 00:32:06;;;;;;;9.33;8.27;;;15.20;99.90;;;;;;5025491;28;20299;-64
2021/09/22 00:34:32;;;;;;;12.43;8.60;;;15.20;99.90;;;;;;5027072;28;20173;-64
2021/09/22 00:36:58;;;;;;;9.83;8.13;;;15.20;99.90;;;;;;5024133;28;20704;-64
2021/09/22 00:39:23;;;;;;;9.70;8.70;;;15.10;99.90;;;;;;5006768;28;20546;-64
2021/09/22 00:41:52;;;;;;;9.03;8.20;;;14.90;99.90;;;;;;5021824;28;20707;-63
2021/09/22 00:44:18;;;;;;;8.67;7.77;;;14.90;99.90;;;;;;5025188;28;20602;-63
2021/09/22 00:46:43;;;;;;;9.43;8.43;;;15.00;99.90;;;;;;5026180;28;20554;-63
2021/09/22 00:49:09;;;;;;;9.53;8.43;;;14.90;99.90;;;;;;5022361;28;20634;-63
2021/09/22 00:51:34;;;;;;;10.03;9.07;;;14.90;99.90;;;;;;5028505;28;21340;-64
2021/09/22 00:54:00;;;;;;;18.70;9.87;;;14.90;99.90;;;;;;5026444;28;20228;-63
2021/09/22 00:56:26;;;;;;;9.50;8.50;;;14.90;99.90;;;;;;5024453;28;20204;-63
2021/09/22 00:58:52;;;;;;;9.57;8.57;;;14.90;99.90;;;;;;5027642;28;20271;-66
2021/09/22 01:01:18;;;;;;;10.50;9.50;;;14.90;99.90;;;;;;5025556;28;20184;-66
2021/09/22 01:03:44;;;;;;;22.30;9.37;;;14.70;99.90;;;;;;5027280;28;20459;-66
2021/09/22 01:06:14;;;;;;;9.73;8.63;;;14.70;99.90;;;;;;5024718;28;20466;-63
2021/09/22 01:08:41;;;;;;;10.10;8.87;;;14.60;99.90;;;;;;5023398;28;20196;-63
2021/09/22 01:11:09;;;;;;;9.97;9.00;;;14.70;99.90;;;;;;5027029;28;20469;-63
2021/09/22 01:13:34;;;;;;;10.50;9.03;;;14.70;99.90;;;;;;5024702;28;20417;-64
2021/09/22 01:16:00;;;;;;;15.70;8.60;;;14.60;99.90;;;;;;5025282;28;20530;-68
2021/09/22 01:18:26;;;;;;;10.10;9.00;;;14.50;99.90;;;;;;5025139;28;20208;-68
2021/09/22 01:20:57;;;;;;;9.70;8.70;;;14.60;99.90;;;;;;5024970;28;20191;-63
2021/09/22 01:23:25;;;;;;;11.40;9.60;;;14.60;99.90;;;;;;5024927;28;20197;-63
2021/09/22 01:25:52;;;;;;;14.93;9.50;;;14.60;99.90;;;;;;5026266;28;20426;-66
2021/09/22 01:28:20;;;;;;;14.13;9.50;;;14.50;99.90;;;;;;5026194;28;20509;-66
2021/09/22 01:30:47;;;;;;;10.10;9.03;;;14.60;99.90;;;;;;5026897;28;20442;-63
2021/09/22 01:33:15;;;;;;;9.73;8.70;;;14.40;99.90;;;;;;5026566;28;20475;-63
2021/09/22 01:35:48;;;;;;;11.90;10.07;;;14.20;99.90;;;;;;5023421;28;20431;-63
2021/09/22 01:38:23;;;;;;;12.57;8.47;;;14.20;99.90;;;;;;5007898;28;20482;-63
2021/09/22 01:40:59;;;;;;;10.03;9.03;;;14.20;99.90;;;;;;5021186;28;20450;-63
2021/09/22 01:43:25;;;;;;;15.00;9.30;;;14.20;99.90;;;;;;5024585;28;20426;-63
2021/09/22 01:45:51;;;;;;;9.30;8.30;;;14.30;99.90;;;;;;5024437;28;20439;-63
2021/09/22 01:48:17;;;;;;;10.20;9.20;;;14.30;99.90;;;;;;5024813;28;20856;-67
2021/09/22 01:50:43;;;;;;;10.00;8.30;;;14.30;99.90;;;;;;5023977;28;20864;-66
2021/09/22 01:53:08;;;;;;;8.37;7.53;;;14.40;99.90;;;;;;5025548;28;20204;-66
2021/09/22 01:55:34;;;;;;;8.87;8.03;;;14.40;99.90;;;;;;5025794;28;20177;-66
2021/09/22 01:58:01;;;;;;;9.90;8.87;;;14.30;99.90;;;;;;5026964;28;20211;-66
2021/09/22 02:00:27;;;;;;;9.63;8.57;;;14.30;99.90;;;;;;5029761;28;20184;-66
2021/09/22 02:02:52;;;;;;;12.97;9.50;;;14.30;99.90;;;;;;5028592;28;20955;-66
2021/09/22 02:05:18;;;;;;;12.53;9.07;;;14.30;99.90;;;;;;5027397;28;20184;-68
2021/09/22 02:07:44;;;;;;;9.80;8.70;;;14.30;99.90;;;;;;5029635;28;20239;-67
2021/09/22 02:10:10;;;;;;;10.83;8.37;;;14.40;99.90;;;;;;5010355;28;20184;-68
2021/09/22 02:12:35;;;;;;;8.63;7.77;;;14.50;99.90;;;;;;5029732;28;20212;-68
2021/09/22 02:15:01;;;;;;;9.63;8.10;;;14.30;99.90;;;;;;5027052;28;20514;-68
2021/09/22 02:17:26;;;;;;;10.10;9.07;;;14.30;99.90;;;;;;5026047;28;20222;-68
2021/09/22 02:19:52;;;;;;;10.30;8.70;;;14.30;99.90;;;;;;5028058;28;20251;-68
2021/09/22 02:22:18;;;;;;;9.53;8.20;;;14.40;99.90;;;;;;5029005;28;20458;-63
2021/09/22 02:24:44;;;;;;;9.97;8.97;;;14.20;99.90;;;;;;5028131;28;20208;-66
2021/09/22 02:27:18;;;;;;;11.10;9.10;;;14.20;99.90;;;;;;5029305;28;20246;-66
2021/09/22 02:29:43;;;;;;;12.20;7.73;;;14.20;99.90;;;;;;5027167;28;20946;-66
2021/09/22 02:32:13;;;;;;;9.37;8.40;;;14.20;99.90;;;;;;5024994;28;20532;-66
2021/09/22 02:34:38;;;;;;;10.13;8.97;;;14.10;99.90;;;;;;5029125;28;20290;-63
2021/09/22 02:37:05;;;;;;;8.93;7.93;;;14.00;99.90;;;;;;5026979;28;20468;-63
2021/09/22 02:39:31;;;;;;;9.80;8.53;;;14.00;99.90;;;;;;5028519;28;20666;-63
2021/09/22 02:41:56;;;;;;;10.23;9.17;;;14.00;99.90;;;;;;5027221;28;20417;-63
2021/09/22 02:44:22;;;;;;;10.27;9.17;;;14.00;99.90;;;;;;5026834;28;20541;-64
2021/09/22 02:46:48;;;;;;;9.27;8.07;;;14.00;99.90;;;;;;5029341;28;20274;-66
2021/09/22 02:49:13;;;;;;;11.77;7.93;;;13.90;99.90;;;;;;5027295;28;20682;-66
2021/09/22 02:51:39;;;;;;;10.90;8.60;;;14.00;99.90;;;;;;5026023;28;20219;-66
2021/09/22 02:54:05;;;;;;;12.03;8.40;;;13.90;99.90;;;;;;5025663;28;20180;-66
2021/09/22 02:56:30;;;;;;;8.70;7.80;;;13.90;99.90;;;;;;5027049;28;20250;-66
2021/09/22 02:58:56;;;;;;;9.60;8.67;;;13.90;99.90;;;;;;5025053;28;20184;-66
2021/09/22 03:01:22;;;;;;;11.77;8.80;;;14.00;99.90;;;;;;5026109;28;20169;-64
2021/09/22 03:03:47;;;;;;;9.50;8.57;;;14.00;99.90;;;;;;5025533;28;20272;-64
2021/09/22 03:06:13;;;;;;;8.67;7.73;;;13.90;99.90;;;;;;5009263;28;20191;-68
2021/09/22 03:08:39;;;;;;;10.43;9.30;;;13.90;99.90;;;;;;5024362;28;20168;-68
2021/09/22 03:11:07;;;;;;;9.53;8.03;;;14.00;99.90;;;;;;5026622;28;20191;-68
2021/09/22 03:13:33;;;;;;;9.13;8.10;;;14.00;99.90;;;;;;5025837;28;20200;-68
2021/09/22 03:15:59;;;;;;;12.30;8.17;;;14.00;99.90;;;;;;5026141;28;20492;-68
2021/09/22 03:18:26;;;;;;;9.20;8.30;;;13.90;99.90;;;;;;5025838;28;20459;-66
2021/09/22 03:20:51;;;;;;;9.10;7.90;;;13.90;99.90;;;;;;5005661;28;20893;-66
2021/09/22 03:23:17;;;;;;;11.07;9.37;;;13.90;99.90;;;;;;5028174;28;20470;-64
2021/09/22 03:25:43;;;;;;;10.50;9.00;;;13.70;99.90;;;;;;5026768;28;20192;-63
2021/09/22 03:28:08;;;;;;;9.90;8.77;;;13.70;99.90;;;;;;5026955;28;20204;-63
2021/09/22 03:30:34;;;;;;;10.00;9.00;;;13.60;99.90;;;;;;5026499;28;20271;-64
2021/09/22 03:33:00;;;;;;;10.67;8.30;;;13.70;99.90;;;;;;5027242;28;20271;-64
2021/09/22 03:35:25;;;;;;;9.13;8.23;;;13.70;99.90;;;;;;5011052;28;20682;-64
2021/09/22 03:37:51;;;;;;;11.83;9.70;;;13.60;99.90;;;;;;5026779;28;20226;-68
2021/09/22 03:40:17;;;;;;;11.83;10.20;;;13.50;99.90;;;;;;5008804;28;20260;-63
2021/09/22 03:42:42;;;;;;;9.57;8.57;;;13.40;99.90;;;;;;5026209;28;20202;-63
2021/09/22 03:45:09;;;;;;;11.37;9.73;;;13.50;99.90;;;;;;5028438;28;20292;-63
2021/09/22 03:47:34;;;;;;;11.23;8.40;;;13.50;99.90;;;;;;5026982;28;20206;-63
2021/09/22 03:50:00;;;;;;;11.17;8.87;;;13.50;99.90;;;;;;5027873;28;20538;-64
2021/09/22 03:52:25;;;;;;;10.13;8.80;;;13.50;99.90;;;;;;5026467;28;20208;-64
2021/09/22 03:54:51;;;;;;;9.13;8.10;;;13.50;99.90;;;;;;5021466;28;20192;-63
2021/09/22 03:57:17;;;;;;;10.10;8.67;;;13.40;99.90;;;;;;5024806;28;20361;-63
2021/09/22 03:59:42;;;;;;;10.50;9.00;;;13.40;99.90;;;;;;5027595;28;20279;-68
2021/09/22 04:02:09;;;;;;;11.70;9.30;;;13.30;99.90;;;;;;5026596;28;20515;-68
2021/09/22 04:04:34;;;;;;;9.80;8.13;;;13.20;99.90;;;;;;5027060;28;20188;-68
2021/09/22 04:07:00;;;;;;;11.00;9.13;;;13.10;99.90;;;;;;5009901;28;20538;-68
2021/09/22 04:09:26;;;;;;;11.40;8.20;;;13.20;99.90;;;;;;5006728;28;20445;-68
2021/09/22 04:11:52;;;;;;;10.00;8.90;;;13.10;99.90;;;;;;5030413;28;20606;-66
2021/09/22 04:14:18;;;;;;;10.00;8.37;;;13.20;99.90;;;;;;5025748;28;20657;-66
2021/09/22 04:16:44;;;;;;;8.60;7.70;;;13.10;99.90;;;;;;5025708;28;20196;-68
2021/09/22 04:19:09;;;;;;;9.47;8.40;;;13.20;99.90;;;;;;5025712;28;20188;-68
2021/09/22 04:21:35;;;;;;;9.73;8.73;;;13.20;99.90;;;;;;5026484;28;20442;-63
2021/09/22 04:24:01;;;;;;;9.77;8.43;;;13.10;99.90;;;;;;5027727;28;20618;-63
2021/09/22 04:26:27;;;;;;;12.43;9.40;;;13.20;99.90;;;;;;5026511;28;20674;-66
2021/09/22 04:28:52;;;;;;;9.40;8.30;;;13.00;99.90;;;;;;5023648;28;20279;-64
2021/09/22 04:31:18;;;;;;;10.33;9.23;;;13.10;99.90;;;;;;5009391;28;20184;-64
2021/09/22 04:33:44;;;;;;;10.97;9.13;;;13.10;99.90;;;;;;5025874;28;20192;-64
2021/09/22 04:36:11;;;;;;;9.57;8.43;;;13.10;99.90;;;;;;5022084;28;20215;-64
2021/09/22 04:38:36;;;;;;;11.90;8.93;;;13.10;99.90;;;;;;5027274;28;20207;-64
2021/09/22 04:41:03;;;;;;;9.90;8.90;;;13.10;99.90;;;;;;5024663;28;20427;-68
2021/09/22 04:43:29;;;;;;;11.03;9.37;;;13.10;99.90;;;;;;5007713;28;20193;-64
2021/09/22 04:45:55;;;;;;;9.80;8.80;;;13.10;99.90;;;;;;5024357;28;20454;-67
2021/09/22 04:48:20;;;;;;;9.77;8.77;;;13.10;99.90;;;;;;5025228;28;20235;-67
2021/09/22 04:50:46;;;;;;;11.30;8.80;;;13.30;99.90;;;;;;5024981;28;20227;-67
2021/09/22 04:53:12;;;;;;;12.70;8.67;;;13.20;99.90;;;;;;5025055;28;20323;-67
2021/09/22 04:55:37;;;;;;;10.03;8.83;;;13.20;99.90;;;;;;5023924;28;20235;-67
2021/09/22 04:58:03;;;;;;;11.87;9.70;;;13.10;99.90;;;;;;5026923;28;20205;-67
2021/09/22 05:00:29;;;;;;;10.30;9.17;;;13.10;99.90;;;;;;5026268;28;20199;-68
2021/09/22 05:02:56;;;;;;;13.40;9.73;;;13.10;99.90;;;;;;5026153;28;20451;-65
2021/09/22 05:05:22;;;;;;;17.83;11.13;;;13.10;99.90;;;;;;5024722;28;20180;-68
2021/09/22 05:07:47;;;;;;;11.13;9.93;;;13.10;99.90;;;;;;5024796;28;20446;-68
2021/09/22 05:10:13;;;;;;;11.43;9.00;;;13.10;99.90;;;;;;5009166;28;20483;-63
2021/09/22 05:12:39;;;;;;;13.93;9.43;;;13.10;99.90;;;;;;5025007;28;20220;-63
2021/09/22 05:15:05;;;;;;;11.63;9.80;;;13.10;99.90;;;;;;5028082;28;20185;-67
2021/09/22 05:17:31;;;;;;;10.20;9.17;;;13.10;99.90;;;;;;5026133;28;20699;-67
2021/09/22 05:19:56;;;;;;;14.90;9.73;;;13.00;99.90;;;;;;5022725;28;20419;-68
2021/09/22 05:22:22;;;;;;;12.93;9.97;;;13.10;99.90;;;;;;5013149;28;20196;-67
2021/09/22 05:24:48;;;;;;;11.07;9.07;;;13.20;99.90;;;;;;5021164;28;20184;-68
2021/09/22 05:27:14;;;;;;;17.83;9.27;;;13.30;99.90;;;;;;5026025;28;20239;-66
2021/09/22 05:29:39;;;;;;;10.33;9.30;;;13.20;99.90;;;;;;4995145;28;20227;-68
2021/09/22 05:32:06;;;;;;;11.57;9.57;;;13.30;99.90;;;;;;5023352;28;20283;-68
2021/09/22 05:34:33;;;;;;;16.00;10.17;;;13.10;99.90;;;;;;5011592;28;20184;-67
2021/09/22 05:36:59;;;;;;;11.00;9.90;;;13.20;99.90;;;;;;5022859;28;20542;-67
2021/09/22 05:39:25;;;;;;;11.20;8.90;;;13.30;99.90;;;;;;5024354;28;20519;-67
2021/09/22 05:41:50;;;;;;;13.20;9.40;;;13.20;99.90;;;;;;5021206;28;20208;-63
2021/09/22 05:44:16;;;;;;;11.17;9.47;;;13.30;99.90;;;;;;5023286;28;20172;-63
2021/09/22 05:46:42;;;;;;;11.40;10.20;;;13.30;99.90;;;;;;5023939;28;20215;-63
2021/09/22 05:49:07;;;;;;;13.63;10.33;;;13.30;99.90;;;;;;5026807;28;20457;-63
2021/09/22 05:51:34;;;;;;;13.00;10.03;;;13.20;99.90;;;;;;5025162;28;20216;-63
2021/09/22 05:54:00;;;;;;;13.07;10.80;;;13.20;99.90;;;;;;5024201;28;20217;-64
2021/09/22 05:56:25;;;;;;;12.60;9.53;;;13.20;99.90;;;;;;5022561;28;20487;-65
2021/09/22 05:58:52;;;;;;;10.83;9.73;;;13.20;99.90;;;;;;5024081;28;20436;-63
2021/09/22 06:01:21;;;;;;;12.43;10.17;;;;;;;;;;5026656;28;20198;-65
2021/09/22 06:03:46;;;;;;;13.17;11.33;;;13.30;99.90;;;;;;5022288;28;20419;-68
2021/09/22 06:06:12;;;;;;;13.53;11.13;;;13.20;99.90;;;;;;5024492;28;20799;-67
2021/09/22 06:08:37;;;;;;;13.20;10.53;;;13.10;99.90;;;;;;5024345;28;20400;-67
2021/09/22 06:11:04;;;;;;;14.87;10.80;;;13.20;99.90;;;;;;5022701;28;20205;-63
2021/09/22 06:13:29;;;;;;;15.67;10.77;;;13.20;99.90;;;;;;5023152;28;20204;-64
2021/09/22 06:15:55;;;;;;;12.37;10.13;;;13.30;99.90;;;;;;5027042;28;20426;-63
2021/09/22 06:18:21;;;;;;;11.80;10.63;;;13.20;99.90;;;;;;5026879;28;20618;-63
2021/09/22 06:20:47;;;;;;;14.73;10.90;;;13.20;99.90;;;;;;5024950;28;20426;-63
2021/09/22 06:23:14;;;;;;;12.67;10.60;;;13.30;99.90;;;;;;5008925;28;20196;-64
2021/09/22 06:25:40;;;;;;;14.60;10.30;;;13.30;99.90;;;;;;5024778;28;20992;-65
2021/09/22 06:28:05;;;;;;;16.80;11.23;;;13.20;99.90;;;;;;5026655;28;20594;-66
2021/09/22 06:30:31;;;;;;;12.80;10.60;;;13.30;99.90;;;;;;5027271;28;20188;-67
2021/09/22 06:32:57;;;;;;;13.37;11.33;;;13.30;99.90;;;;;;5025861;28;20594;-68
2021/09/22 06:35:23;;;;;;;13.40;11.50;;;13.30;99.90;;;;;;5024995;28;20474;-64
2021/09/22 06:37:49;;;;;;;11.83;10.60;;;13.40;99.90;;;;;;5022384;28;20201;-68
2021/09/22 06:40:19;;;;;;;15.80;10.60;;;13.40;99.90;;;;;;5029092;28;20457;-63
2021/09/22 06:42:46;;;;;;;16.17;11.40;;;13.40;99.90;;;;;;5012836;28;20192;-68
2021/09/22 06:45:13;;;;;;;13.10;10.97;;;13.40;99.90;;;;;;5028426;28;21085;-67
2021/09/22 06:47:39;;;;;;;12.90;10.77;;;13.40;99.90;;;;;;5026617;28;20493;-69
2021/09/22 06:50:06;;;;;;;16.97;10.50;;;13.40;99.90;;;;;;5031698;28;20479;-69
2021/09/22 06:52:32;;;;;;;17.70;11.13;;;13.50;99.90;;;;;;5025790;28;20459;-69
2021/09/22 06:54:59;;;;;;;14.53;10.23;;;13.50;99.90;;;;;;5026363;28;20443;-67
2021/09/22 06:57:25;;;;;;;12.40;10.07;;;13.50;99.90;;;;;;5027172;28;20545;-67
2021/09/22 06:59:51;;;;;;;12.17;9.77;;;13.50;99.90;;;;;;5025741;28;20530;-67
2021/09/22 07:02:16;;;;;;;16.57;10.40;;;13.40;99.90;;;;;;5026547;28;20192;-69
2021/09/22 07:04:42;;;;;;;12.80;10.00;;;13.40;99.90;;;;;;5027018;28;20177;-65
2021/09/22 07:07:08;;;;;;;24.00;11.00;;;13.20;99.90;;;;;;5027465;28;20310;-65
2021/09/22 07:09:34;;;;;;;14.47;11.57;;;13.40;99.90;;;;;;5025177;28;20231;-63
2021/09/22 07:11:59;;;;;;;15.27;11.43;;;13.40;99.90;;;;;;5026982;28;20516;-64
2021/09/22 07:14:25;;;;;;;15.23;11.77;;;13.50;99.90;;;;;;5026674;28;20250;-65
2021/09/22 07:16:51;;;;;;;15.17;11.27;;;13.50;99.90;;;;;;5026120;28;20235;-65
2021/09/22 07:19:16;;;;;;;12.90;10.50;;;13.60;99.90;;;;;;5027023;28;20663;-65
2021/09/22 07:21:42;;;;;;;20.40;12.03;;;13.50;99.90;;;;;;5027317;28;20227;-65
2021/09/22 07:24:08;;;;;;;15.63;11.30;;;13.60;99.90;;;;;;5027084;28;20208;-65
2021/09/22 07:26:34;;;;;;;12.77;10.00;;;13.60;99.90;;;;;;5025488;28;20208;-65
2021/09/22 07:29:00;;;;;;;13.63;10.33;;;13.60;99.90;;;;;;5025480;28;20478;-65
2021/09/22 07:31:26;;;;;;;14.27;10.60;;;13.60;99.90;;;;;;5027754;28;20268;-65
2021/09/22 07:33:52;;;;;;;16.57;11.47;;;13.80;99.90;;;;;;5025646;28;20431;-65
2021/09/22 07:36:18;;;;;;;14.10;11.13;;;13.90;99.90;;;;;;5024932;28;20953;-63
2021/09/22 07:38:46;;;;;;;14.80;11.60;;;13.80;99.90;;;;;;5029138;28;20643;-67
2021/09/22 07:41:13;;;;;;;12.80;10.43;;;13.80;99.90;;;;;;5027222;28;20778;-67
2021/09/22 07:43:38;;;;;;;14.10;12.07;;;13.70;99.90;;;;;;5026311;28;20455;-69
2021/09/22 07:46:04;;;;;;;14.00;11.00;;;13.80;99.90;;;;;;5008417;28;20424;-67
2021/09/22 07:48:30;;;;;;;12.67;11.07;;;13.90;99.90;;;;;;5026099;28;20703;-67
2021/09/22 07:50:56;;;;;;;27.83;18.60;;;13.90;99.90;;;;;;5026888;28;20283;-67
2021/09/22 07:53:22;;;;;;;14.87;13.00;;;13.90;99.90;;;;;;5027666;28;20711;-65
2021/09/22 07:55:48;;;;;;;19.00;15.37;;;14.00;99.90;;;;;;5025775;28;20552;-65
2021/09/22 07:58:13;;;;;;;17.47;12.57;;;14.00;99.90;;;;;;5028202;28;20299;-69
2021/09/22 08:00:39;;;;;;;18.50;12.97;;;14.00;99.90;;;;;;5026560;28;20201;-65
2021/09/22 08:03:05;;;;;;;12.20;10.90;;;14.00;99.90;;;;;;5025034;28;20197;-65
2021/09/22 08:05:36;;;;;;;16.00;11.93;;;14.10;99.90;;;;;;5027674;28;20375;-64
2021/09/22 08:08:02;;;;;;;14.53;11.43;;;14.20;99.90;;;;;;5026975;28;20607;-64
2021/09/22 08:10:28;;;;;;;14.53;11.40;;;14.20;99.90;;;;;;5028550;28;20432;-66
2021/09/22 08:12:53;;;;;;;13.80;11.50;;;14.20;99.90;;;;;;5027068;28;20216;-66
2021/09/22 08:15:20;;;;;;;15.00;11.40;;;14.20;99.90;;;;;;5027413;28;20205;-68
2021/09/22 08:17:46;;;;;;;15.17;12.20;;;14.30;99.90;;;;;;5028389;28;20443;-63
2021/09/22 08:20:14;;;;;;;19.27;12.90;;;14.10;99.90;;;;;;5027134;28;20196;-63
2021/09/22 08:22:40;;;;;;;21.57;13.00;;;14.10;99.90;;;;;;5029284;28;20208;-68
2021/09/22 08:25:06;;;;;;;14.70;12.63;;;14.30;99.90;;;;;;5006254;28;20412;-63
2021/09/22 08:27:32;;;;;;;14.63;12.27;;;14.30;99.90;;;;;;5026378;28;20547;-66
2021/09/22 08:29:57;;;;;;;20.03;13.57;;;14.40;99.90;;;;;;5023625;28;20482;-63
2021/09/22 08:32:23;;;;;;;13.47;12.03;;;14.50;99.90;;;;;;5024626;28;20204;-64
2021/09/22 08:34:51;;;;;;;15.03;11.97;;;14.70;99.90;;;;;;5022993;28;20189;-64
2021/09/22 08:37:17;;;;;;;19.13;11.60;;;14.70;99.90;;;;;;5024668;28;20223;-64
2021/09/22 08:39:43;;;;;;;15.90;12.57;;;14.80;99.90;;;;;;5025747;28;20435;-68
2021/09/22 08:42:10;;;;;;;19.73;12.23;;;14.80;99.90;;;;;;5026915;28;20200;-68
2021/09/22 08:44:36;;;;;;;15.50;11.70;;;14.90;99.90;;;;;;5026307;28;20189;-67
2021/09/22 08:47:02;;;;;;;16.50;12.93;;;14.90;99.90;;;;;;5004374;28;20538;-65
2021/09/22 08:49:29;;;;;;;16.13;11.60;;;15.10;99.90;;;;;;5024050;28;20801;-64
2021/09/22 08:51:54;;;;;;;14.73;12.73;;;15.10;99.90;;;;;;5022869;28;20212;-66
2021/09/22 08:54:20;;;;;;;14.77;13.13;;;15.10;99.90;;;;;;5022494;28;20443;-63
2021/09/22 08:56:46;;;;;;;17.70;13.10;;;15.20;99.90;;;;;;5023712;28;20250;-67
2021/09/22 08:59:14;;;;;;;15.63;11.97;;;15.30;99.90;;;;;;5026880;28;20192;-67
2021/09/22 09:01:41;;;;;;;16.20;12.60;;;15.20;99.90;;;;;;5024606;28;20188;-66
2021/09/22 09:04:16;;;;;;;16.07;11.87;;;15.20;99.90;;;;;;5024980;28;21164;-66
2021/09/22 09:06:42;;;;;;;14.57;10.93;;;15.40;99.90;;;;;;5008330;28;20745;-68
2021/09/22 09:09:08;;;;;;;14.63;11.90;;;15.50;99.90;;;;;;5024114;28;21011;-66
2021/09/22 09:11:37;;;;;;;12.47;11.17;;;15.50;99.90;;;;;;5026538;28;20419;-63
2021/09/22 09:14:06;;;;;;;13.63;10.90;;;15.70;99.90;;;;;;5029050;28;20470;-63
2021/09/22 09:16:49;;;;;;;16.63;11.70;;;15.70;99.90;;;;;;5023905;28;20585;-64
2021/09/22 09:19:21;;;;;;;14.00;10.67;;;15.80;99.90;;;;;;5007566;28;20464;-67
2021/09/22 09:22:06;;;;;;;13.67;10.80;;;16.00;99.90;;;;;;5023784;28;20849;-69
2021/09/22 09:24:39;;;;;;;14.30;11.87;;;16.00;99.90;;;;;;5021851;28;20525;-68
2021/09/22 09:27:11;;;;;;;13.70;12.30;;;16.10;99.90;;;;;;5010397;28;20949;-63
2021/09/22 09:29:38;;;;;;;13.30;11.90;;;16.20;99.90;;;;;;5025862;28;20439;-63
2021/09/22 09:32:23;;;;;;;20.83;11.87;;;16.20;99.90;;;;;;5021569;28;20470;-65
2021/09/22 09:35:12;;;;;;;12.63;10.20;;;16.30;99.90;;;;;;5006840;28;20441;-68
2021/09/22 09:37:46;;;;;;;12.57;9.70;;;16.40;99.90;;;;;;5027794;28;20879;-69
2021/09/22 09:40:32;;;;;;;12.77;9.73;;;16.50;99.90;;;;;;5024657;28;20427;-69
2021/09/22 09:43:09;;;;;;;14.17;10.50;;;16.70;99.90;;;;;;5022064;28;20430;-65
2021/09/22 09:45:39;;;;;;;16.67;12.00;;;16.70;99.90;;;;;;5023682;28;20445;-67
2021/09/22 09:48:17;;;;;;;11.70;10.50;;;16.90;99.90;;;;;;5006626;28;20838;-67
2021/09/22 09:50:44;;;;;;;20.37;10.30;;;16.90;99.90;;;;;;5025312;28;20947;-66
2021/09/22 09:53:28;;;;;;;14.33;11.93;;;17.00;99.90;;;;;;5023691;28;20467;-68
2021/09/22 09:55:57;;;;;;;10.60;9.50;;;17.10;99.90;;;;;;5023513;28;20415;-68
2021/09/22 09:58:26;;;;;;;11.60;9.40;;;17.00;99.90;;;;;;5022082;28;20475;-65
2021/09/22 10:00:56;;;;;;;10.13;8.90;;;17.20;99.90;;;;;;5005885;28;20514;-63
2021/09/22 10:03:23;;;;;;;12.70;8.00;;;17.30;99.90;;;;;;5025850;28;20654;-69
2021/09/22 10:05:53;;;;;;;10.70;7.70;;;17.30;99.90;;;;;;5019937;28;20864;-67
2021/09/22 10:08:20;;;;;;;7.93;7.13;;;17.40;99.90;;;;;;5024879;28;20493;-67
2021/09/22 10:10:48;;;;;;;8.47;7.67;;;17.50;99.90;;;;;;5024990;28;20832;-68
2021/09/22 10:13:15;;;;;;;8.17;7.37;;;17.60;99.90;;;;;;5022639;28;20855;-64
2021/09/22 10:15:43;;;;;;;7.43;6.70;;;17.60;99.90;;;;;;5026655;28;20432;-64
2021/09/22 10:18:10;;;;;;;6.87;6.20;;;17.80;99.90;;;;;;5029422;28;20442;-63
2021/09/22 10:20:43;;;;;;;6.30;5.70;;;17.90;99.90;;;;;;5027527;28;20442;-68
2021/09/22 10:23:11;;;;;;;6.60;5.97;;;17.90;99.90;;;;;;5028280;28;20416;-63
2021/09/22 10:25:38;;;;;;;7.70;6.50;;;18.20;99.90;;;;;;5028861;28;20843;-63
2021/09/22 10:28:04;;;;;;;6.13;5.60;;;18.30;99.90;;;;;;5009829;28;20626;-64
2021/09/22 10:30:33;;;;;;;5.50;5.00;;;18.20;99.90;;;;;;5029490;28;20518;-63
2021/09/22 10:32:58;;;;;;;5.20;4.53;;;18.20;99.90;;;;;;5028919;28;20631;-67
2021/09/22 10:35:27;;;;;;;5.83;4.60;;;18.30;99.90;;;;;;5011827;28;20493;-67
2021/09/22 10:37:58;;;;;;;5.73;5.07;;;18.50;99.90;;;;;;5025505;28;20204;-66
2021/09/22 10:40:33;;;;;;;5.10;4.70;;;18.50;99.90;;;;;;5027182;28;20522;-66
2021/09/22 10:43:14;;;;;;;8.53;4.27;;;18.60;99.90;;;;;;5027287;28;20539;-67
2021/09/22 10:45:44;;;;;;;6.93;4.90;;;18.70;99.90;;;;;;5028338;28;20529;-64
2021/09/22 10:48:23;;;;;;;5.27;4.17;;;18.70;99.90;;;;;;5027018;28;20588;-64
2021/09/22 10:50:53;;;;;;;4.67;4.27;;;18.70;99.90;;;;;;5027173;28;20489;-69
2021/09/22 10:53:37;;;;;;;5.00;4.50;;;18.70;99.90;;;;;;5026075;28;21019;-67
2021/09/22 10:56:07;;;;;;;4.03;3.73;;;18.80;99.90;;;;;;5022927;28;20454;-66
2021/09/22 10:58:38;;;;;;;4.50;4.10;;;18.80;99.90;;;;;;5026687;28;20486;-64
2021/09/22 11:01:03;;;;;;;5.90;3.83;;;18.70;99.90;;;;;;5026957;28;20499;-63
2021/09/22 11:03:48;;;;;;;4.40;4.00;;;18.90;99.90;;;;;;5025711;28;20533;-63
2021/09/22 11:06:45;;;;;;;5.33;3.73;;;19.00;99.90;;;;;;5023521;28;20223;-63
2021/09/22 11:09:24;;;;;;;6.83;4.30;;;19.00;99.90;;;;;;5026043;28;20949;-66
2021/09/22 11:11:56;;;;;;;3.80;3.50;;;19.10;99.90;;;;;;5025030;28;20554;-66
2021/09/22 11:14:44;;;;;;;4.90;3.67;;;19.20;99.90;;;;;;5028346;28;20814;-67
2021/09/22 11:17:14;;;;;;;4.20;3.80;;;19.30;99.90;;;;;;5015629;28;20459;-63
2021/09/22 11:19:42;;;;;;;4.37;4.00;;;19.30;99.90;;;;;;5008460;28;20474;-63
2021/09/22 11:22:16;;;;;;;4.20;3.80;;;19.30;99.90;;;;;;5026533;28;20443;-66
2021/09/22 11:24:43;;;;;;;4.83;4.30;;;19.50;99.90;;;;;;5026089;28;20807;-67
2021/09/22 11:27:14;;;;;;;4.30;3.67;;;19.60;99.90;;;;;;5026802;28;20957;-62
2021/09/22 11:29:47;;;;;;;4.27;3.87;;;19.70;99.90;;;;;;5009597;28;20482;-67
2021/09/22 11:32:32;;;;;;;4.70;4.17;;;19.90;99.90;;;;;;5025321;28;21096;-68
2021/09/22 11:34:58;;;;;;;5.93;4.60;;;20.10;99.90;;;;;;5029226;28;20427;-63
2021/09/22 11:37:30;;;;;;;4.23;3.87;;;20.20;99.90;;;;;;5029783;28;20497;-64
2021/09/22 11:39:56;;;;;;;3.90;3.50;;;20.40;99.90;;;;;;5022823;28;20169;-66
2021/09/22 11:42:23;;;;;;;11.03;3.80;;;20.50;99.90;;;;;;5026490;28;20835;-66
2021/09/22 11:44:52;;;;;;;5.47;4.20;;;20.70;99.90;;;;;;5026476;28;20508;-63
2021/09/22 11:47:18;;;;;;;6.30;3.80;;;20.80;99.90;;;;;;5025825;28;20521;-64
2021/09/22 11:49:44;;;;;;;5.17;4.30;;;20.90;99.90;;;;;;5027213;28;21002;-66
2021/09/22 11:52:19;;;;;;;6.53;4.20;;;21.00;99.90;;;;;;5027192;28;20821;-64
2021/09/22 11:54:44;;;;;;;6.30;4.73;;;21.50;99.90;;;;;;5026390;28;20453;-66
2021/09/22 11:57:11;;;;;;;5.53;3.97;;;22.10;99.90;;;;;;5026116;28;20455;-64
2021/09/22 11:59:39;;;;;;;4.33;3.93;;;23.00;99.90;;;;;;5029138;28;20215;-64
2021/09/22 12:02:05;;;;;;;4.00;3.70;;;23.80;98.70;;;;;;5008906;28;20485;-63
2021/09/22 12:04:34;;;;;;;4.67;4.17;;;24.50;97.60;;;;;;5026930;28;20426;-63
2021/09/22 12:07:00;;;;;;;6.07;5.57;;;25.20;95.60;;;;;;5023331;28;20954;-69
2021/09/22 12:09:26;;;;;;;4.93;4.53;;;25.60;94.80;;;;;;5026656;28;20439;-64
2021/09/22 12:12:24;;;;;;;4.27;3.80;;;26.10;93.50;;;;;;5024631;28;20211;-63
2021/09/22 12:14:53;;;;;;;4.10;3.67;;;26.80;91.50;;;;;;4991426;28;20219;-66
2021/09/22 12:17:22;;;;;;;7.67;5.10;;;26.70;91.00;;;;;;5026034;28;20479;-66
2021/09/22 12:19:49;;;;;;;4.73;4.33;;;27.10;90.20;;;;;;5023528;28;20606;-66
2021/09/22 12:22:23;;;;;;;9.70;4.47;;;27.50;88.80;;;;;;5027144;28;20498;-66
2021/09/22 12:24:50;;;;;;;6.67;4.03;;;27.70;87.40;;;;;;5027922;28;20423;-63
2021/09/22 12:27:18;;;;;;;5.50;3.50;;;28.20;85.50;;;;;;5026389;28;20434;-66
2021/09/22 12:29:55;;;;;;;4.23;3.83;;;28.30;82.50;;;;;;5023427;28;20879;-68
2021/09/22 12:32:22;;;;;;;3.80;3.50;;;28.60;80.70;;;;;;5026332;28;20669;-67
2021/09/22 12:34:47;;;;;;;4.73;4.33;;;29.00;79.60;;;;;;5024513;28;20545;-66
2021/09/22 12:37:16;;;;;;;5.20;4.67;;;29.30;76.30;;;;;;5018935;28;21020;-67
2021/09/22 12:39:58;;;;;;;5.43;4.90;;;29.60;76.30;;;;;;5028273;28;20167;-68